sensor_id;sensor_type;location;lat;lon;timestamp;temperature;humidity
14210;DHT22;7188;56.070;12.698;2023-02-01T00:00:27;4.10;1.00
14210;DHT22;7188;56.070;12.698;2023-02-01T00:02:53;4.20;1.00
14210;DHT22;7188;56.070;12.698;2023-02-01T00:05:18;4.10;1.00
14210;DHT22;7188;56.070;12.698;2023-02-01T00:07:47;4.10;1.00
14210;DHT22;7188;56.070;12.698;2023-02-01T00:10:13;4.10;1.00
14210;DHT22;7188;56.070;12.698;2023-02-01T00:12:39;4.10;99.90
14210;DHT22;7188;56.070;12.698;2023-02-01T00:15:05;4.10;98.60
14210;DHT22;7188;56.070;12.698;2023-02-01T00:17:31;4.10;99.90
14210;DHT22;7188;56.070;12.698;2023-02-01T00:19:59;4.10;99.90
14210;DHT22;7188;56.070;12.698;2023-02-01T00:22:25;4.10;99.90
14210;DHT22;7188;56.070;12.698;2023-02-01T00:24:50;4.10;99.90
14210;DHT22;7188;56.070;12.698;2023-02-01T00:27:16;4.10;99.90
14210;DHT22;7188;56.070;12.698;2023-02-01T00:29:45;4.10;99.90
14210;DHT22;7188;56.070;12.698;2023-02-01T00:32:11;4.10;99.90
14210;DHT22;7188;56.070;12.698;2023-02-01T00:34:37;4.20;99.90
14210;DHT22;7188;56.070;12.698;2023-02-01T00:37:02;4.20;99.90
14210;DHT22;7188;56.070;12.698;2023-02-01T00:39:28;4.20;1.00
14210;DHT22;7188;56.070;12.698;2023-02-01T00:41:53;4.30;3.40
14210;DHT22;7188;56.070;12.698;2023-02-01T00:44:19;4.30;51.80
14210;DHT22;7188;56.070;12.698;2023-02-01T00:46:45;4.30;99.90
14210;DHT22;7188;56.070;12.698;2023-02-01T00:49:10;4.30;99.90
14210;DHT22;7188;56.070;12.698;2023-02-01T00:51:36;4.40;99.90
14210;DHT22;7188;56.070;12.698;2023-02-01T00:54:02;4.40;99.90
14210;DHT22;7188;56.070;12.698;2023-02-01T00:56:29;4.40;99.90
14210;DHT22;7188;56.070;12.698;2023-02-01T00:58:55;4.40;99.90
14210;DHT22;7188;56.070;12.698;2023-02-01T01:01:25;4.40;99.90
14210;DHT22;7188;56.070;12.698;2023-02-01T01:03:53;4.40;99.90
14210;DHT22;7188;56.070;12.698;2023-02-01T01:06:26;4.50;99.90
14210;DHT22;7188;56.070;12.698;2023-02-01T01:08:58;4.50;36.20
14210;DHT22;7188;56.070;12.698;2023-02-01T01:11:30;4.50;1.00
14210;DHT22;7188;56.070;12.698;2023-02-01T01:13:57;4.60;1.00
14210;DHT22;7188;56.070;12.698;2023-02-01T01:16:25;4.50;1.00
14210;DHT22;7188;56.070;12.698;2023-02-01T01:18:51;4.60;1.00
14210;DHT22;7188;56.070;12.698;2023-02-01T01:21:18;4.60;99.90
14210;DHT22;7188;56.070;12.698;2023-02-01T01:23:45;4.60;99.90
14210;DHT22;7188;56.070;12.698;2023-02-01T01:26:19;4.70;99.90
14210;DHT22;7188;56.070;12.698;2023-02-01T01:28:46;4.60;99.90
14210;DHT22;7188;56.070;12.698;2023-02-01T01:31:13;4.70;99.50
14210;DHT22;7188;56.070;12.698;2023-02-01T01:33:39;4.60;26.50
14210;DHT22;7188;56.070;12.698;2023-02-01T01:36:08;4.70;1.00
14210;DHT22;7188;56.070;12.698;2023-02-01T01:38:38;4.70;1.00
14210;DHT22;7188;56.070;12.698;2023-02-01T01:41:04;4.70;1.00
14210;DHT22;7188;56.070;12.698;2023-02-01T01:43:54;4.70;1.00
14210;DHT22;7188;56.070;12.698;2023-02-01T01:46:22;4.70;1.00
14210;DHT22;7188;56.070;12.698;2023-02-01T01:49:37;4.70;1.00
14210;DHT22;7188;56.070;12.698;2023-02-01T01:51:44;4.70;1.00
14210;DHT22;7188;56.070;12.698;2023-02-01T01:56:39;4.60;21.20
14210;DHT22;7188;56.070;12.698;2023-02-01T01:59:06;4.60;1.00
14210;DHT22;7188;56.070;12.698;2023-02-01T02:01:33;4.70;38.60
14210;DHT22;7188;56.070;12.698;2023-02-01T02:03:59;4.60;1.00
14210;DHT22;7188;56.070;12.698;2023-02-01T02:06:41;4.70;1.00
14210;DHT22;7188;56.070;12.698;2023-02-01T02:09:11;4.70;1.00
14210;DHT22;7188;56.070;12.698;2023-02-01T02:11:37;4.60;1.00
14210;DHT22;7188;56.070;12.698;2023-02-01T02:14:03;4.60;1.00
14210;DHT22;7188;56.070;12.698;2023-02-01T02:27:49;4.70;1.00
14210;DHT22;7188;56.070;12.698;2023-02-01T02:39:06;4.70;99.90
14210;DHT22;7188;56.070;12.698;2023-02-01T02:45:41;4.70;99.90
14210;DHT22;7188;56.070;12.698;2023-02-01T02:48:22;4.60;99.90
14210;DHT22;7188;56.070;12.698;2023-02-01T02:51:15;4.60;1.00
14210;DHT22;7188;56.070;12.698;2023-02-01T02:54:11;4.60;1.00
14210;DHT22;7188;56.070;12.698;2023-02-01T02:56:58;4.50;1.00
14210;DHT22;7188;56.070;12.698;2023-02-01T02:59:44;4.50;1.00
14210;DHT22;7188;56.070;12.698;2023-02-01T03:02:30;4.50;1.00
14210;DHT22;7188;56.070;12.698;2023-02-01T03:05:14;4.50;1.00
14210;DHT22;7188;56.070;12.698;2023-02-01T03:10:22;4.40;1.00
14210;DHT22;7188;56.070;12.698;2023-02-01T03:12:50;4.50;1.00
14210;DHT22;7188;56.070;12.698;2023-02-01T03:15:36;4.50;1.00
14210;DHT22;7188;56.070;12.698;2023-02-01T03:18:06;4.50;99.90
14210;DHT22;7188;56.070;12.698;2023-02-01T03:20:38;4.50;99.90
14210;DHT22;7188;56.070;12.698;2023-02-01T03:23:06;4.40;99.90
14210;DHT22;7188;56.070;12.698;2023-02-01T03:25:33;4.40;99.90
14210;DHT22;7188;56.070;12.698;2023-02-01T03:28:06;4.50;99.90
14210;DHT22;7188;56.070;12.698;2023-02-01T03:30:51;4.50;99.90
14210;DHT22;7188;56.070;12.698;2023-02-01T03:33:21;4.50;99.90
14210;DHT22;7188;56.070;12.698;2023-02-01T03:36:06;4.50;99.90
14210;DHT22;7188;56.070;12.698;2023-02-01T03:41:41;4.50;99.90
14210;DHT22;7188;56.070;12.698;2023-02-01T03:44:29;4.50;99.90
14210;DHT22;7188;56.070;12.698;2023-02-01T03:47:03;4.50;99.90
14210;DHT22;7188;56.070;12.698;2023-02-01T03:52:00;4.50;1.00
14210;DHT22;7188;56.070;12.698;2023-02-01T03:54:28;4.60;1.00
14210;DHT22;7188;56.070;12.698;2023-02-01T03:56:57;4.50;1.00
14210;DHT22;7188;56.070;12.698;2023-02-01T03:59:24;4.50;99.90
14210;DHT22;7188;56.070;12.698;2023-02-01T04:01:50;4.50;99.90
14210;DHT22;7188;56.070;12.698;2023-02-01T04:04:16;4.50;99.90
14210;DHT22;7188;56.070;12.698;2023-02-01T04:06:49;4.50;99.90
14210;DHT22;7188;56.070;12.698;2023-02-01T04:09:15;4.50;99.90
14210;DHT22;7188;56.070;12.698;2023-02-01T04:11:41;4.50;99.90
14210;DHT22;7188;56.070;12.698;2023-02-01T04:14:07;4.50;1.00
14210;DHT22;7188;56.070;12.698;2023-02-01T04:16:32;4.50;32.80
14210;DHT22;7188;56.070;12.698;2023-02-01T04:18:58;4.50;84.60
14210;DHT22;7188;56.070;12.698;2023-02-01T04:21:25;4.50;99.90
14210;DHT22;7188;56.070;12.698;2023-02-01T04:24:03;4.60;1.00
14210;DHT22;7188;56.070;12.698;2023-02-01T04:26:29;4.50;35.10
14210;DHT22;7188;56.070;12.698;2023-02-01T04:28:54;4.60;44.60
14210;DHT22;7188;56.070;12.698;2023-02-01T04:31:20;4.60;50.40
14210;DHT22;7188;56.070;12.698;2023-02-01T04:33:51;4.60;1.00
14210;DHT22;7188;56.070;12.698;2023-02-01T04:36:18;4.60;1.00
14210;DHT22;7188;56.070;12.698;2023-02-01T04:38:46;4.60;1.00
14210;DHT22;7188;56.070;12.698;2023-02-01T04:41:11;4.60;1.00
14210;DHT22;7188;56.070;12.698;2023-02-01T04:43:37;4.60;1.00
14210;DHT22;7188;56.070;12.698;2023-02-01T04:46:02;4.50;1.00
14210;DHT22;7188;56.070;12.698;2023-02-01T04:48:28;4.50;1.00
14210;DHT22;7188;56.070;12.698;2023-02-01T04:50:54;4.40;1.00
14210;DHT22;7188;56.070;12.698;2023-02-01T04:53:19;4.50;1.00
14210;DHT22;7188;56.070;12.698;2023-02-01T04:55:48;4.40;93.10
14210;DHT22;7188;56.070;12.698;2023-02-01T04:58:13;4.40;99.90
14210;DHT22;7188;56.070;12.698;2023-02-01T05:00:39;4.40;99.90
14210;DHT22;7188;56.070;12.698;2023-02-01T05:03:05;4.40;99.90
14210;DHT22;7188;56.070;12.698;2023-02-01T05:05:30;4.40;1.00
14210;DHT22;7188;56.070;12.698;2023-02-01T05:07:56;4.40;1.00
14210;DHT22;7188;56.070;12.698;2023-02-01T05:10:22;4.40;1.00
14210;DHT22;7188;56.070;12.698;2023-02-01T05:12:47;4.30;1.00
14210;DHT22;7188;56.070;12.698;2023-02-01T05:15:32;4.30;99.90
14210;DHT22;7188;56.070;12.698;2023-02-01T05:17:57;4.40;1.00
14210;DHT22;7188;56.070;12.698;2023-02-01T05:20:24;4.30;99.90
14210;DHT22;7188;56.070;12.698;2023-02-01T05:22:49;4.40;1.00
14210;DHT22;7188;56.070;12.698;2023-02-01T05:25:18;4.30;99.90
14210;DHT22;7188;56.070;12.698;2023-02-01T05:27:44;4.40;99.90
14210;DHT22;7188;56.070;12.698;2023-02-01T05:30:10;4.30;99.90
14210;DHT22;7188;56.070;12.698;2023-02-01T05:32:36;4.30;99.90
14210;DHT22;7188;56.070;12.698;2023-02-01T05:35:01;4.30;99.90
14210;DHT22;7188;56.070;12.698;2023-02-01T05:37:27;4.30;99.90
14210;DHT22;7188;56.070;12.698;2023-02-01T05:39:53;4.40;99.90
14210;DHT22;7188;56.070;12.698;2023-02-01T05:42:19;4.40;99.90
14210;DHT22;7188;56.070;12.698;2023-02-01T05:44:44;4.40;99.90
14210;DHT22;7188;56.070;12.698;2023-02-01T05:47:10;4.40;99.90
14210;DHT22;7188;56.070;12.698;2023-02-01T05:49:36;4.40;1.00
14210;DHT22;7188;56.070;12.698;2023-02-01T05:52:02;4.40;99.90
14210;DHT22;7188;56.070;12.698;2023-02-01T05:54:27;4.40;99.90
14210;DHT22;7188;56.070;12.698;2023-02-01T05:56:53;4.50;99.90
14210;DHT22;7188;56.070;12.698;2023-02-01T05:59:19;4.40;99.90
14210;DHT22;7188;56.070;12.698;2023-02-01T06:01:44;4.50;99.90
14210;DHT22;7188;56.070;12.698;2023-02-01T06:04:10;4.50;99.90
14210;DHT22;7188;56.070;12.698;2023-02-01T06:06:36;4.40;64.30
14210;DHT22;7188;56.070;12.698;2023-02-01T06:09:02;4.40;69.40
14210;DHT22;7188;56.070;12.698;2023-02-01T06:11:29;4.40;94.60
14210;DHT22;7188;56.070;12.698;2023-02-01T06:13:54;4.30;73.70
14210;DHT22;7188;56.070;12.698;2023-02-01T06:16:21;4.30;36.80
14210;DHT22;7188;56.070;12.698;2023-02-01T06:18:47;4.30;27.80
14210;DHT22;7188;56.070;12.698;2023-02-01T06:21:13;4.30;99.90
14210;DHT22;7188;56.070;12.698;2023-02-01T06:23:41;4.20;99.90
14210;DHT22;7188;56.070;12.698;2023-02-01T06:26:07;4.20;99.90
14210;DHT22;7188;56.070;12.698;2023-02-01T06:28:34;4.20;99.90
14210;DHT22;7188;56.070;12.698;2023-02-01T06:31:04;4.10;99.90
14210;DHT22;7188;56.070;12.698;2023-02-01T06:33:32;4.10;99.90
14210;DHT22;7188;56.070;12.698;2023-02-01T06:36:00;4.10;1.00
14210;DHT22;7188;56.070;12.698;2023-02-01T06:38:27;4.10;1.00
14210;DHT22;7188;56.070;12.698;2023-02-01T06:40:55;4.10;1.00
14210;DHT22;7188;56.070;12.698;2023-02-01T06:43:23;4.10;1.00
14210;DHT22;7188;56.070;12.698;2023-02-01T06:45:49;4.10;21.20
14210;DHT22;7188;56.070;12.698;2023-02-01T06:48:14;4.00;99.90
14210;DHT22;7188;56.070;12.698;2023-02-01T06:50:40;4.00;99.90
14210;DHT22;7188;56.070;12.698;2023-02-01T06:53:06;4.00;99.90
14210;DHT22;7188;56.070;12.698;2023-02-01T06:55:31;4.00;1.00
14210;DHT22;7188;56.070;12.698;2023-02-01T06:57:57;4.00;1.00
14210;DHT22;7188;56.070;12.698;2023-02-01T07:00:23;4.00;1.00
14210;DHT22;7188;56.070;12.698;2023-02-01T07:02:49;3.90;1.00
14210;DHT22;7188;56.070;12.698;2023-02-01T07:05:15;3.90;1.00
14210;DHT22;7188;56.070;12.698;2023-02-01T07:07:41;3.90;1.00
14210;DHT22;7188;56.070;12.698;2023-02-01T07:10:06;3.90;1.00
14210;DHT22;7188;56.070;12.698;2023-02-01T07:12:32;3.90;1.00
14210;DHT22;7188;56.070;12.698;2023-02-01T07:14:58;4.00;1.00
14210;DHT22;7188;56.070;12.698;2023-02-01T07:17:23;3.90;99.90
14210;DHT22;7188;56.070;12.698;2023-02-01T07:19:49;4.00;99.90
14210;DHT22;7188;56.070;12.698;2023-02-01T07:22:18;4.00;99.90
14210;DHT22;7188;56.070;12.698;2023-02-01T07:24:43;4.00;99.90
14210;DHT22;7188;56.070;12.698;2023-02-01T07:27:09;4.10;99.90
14210;DHT22;7188;56.070;12.698;2023-02-01T07:29:35;4.10;99.90
14210;DHT22;7188;56.070;12.698;2023-02-01T07:32:00;4.10;99.90
14210;DHT22;7188;56.070;12.698;2023-02-01T07:34:28;4.10;99.90
14210;DHT22;7188;56.070;12.698;2023-02-01T07:36:58;4.10;99.90
14210;DHT22;7188;56.070;12.698;2023-02-01T07:39:24;4.10;99.90
14210;DHT22;7188;56.070;12.698;2023-02-01T07:41:50;4.10;99.90
14210;DHT22;7188;56.070;12.698;2023-02-01T07:44:15;4.00;99.90
14210;DHT22;7188;56.070;12.698;2023-02-01T07:46:44;4.00;99.90
14210;DHT22;7188;56.070;12.698;2023-02-01T07:49:09;4.10;48.80
14210;DHT22;7188;56.070;12.698;2023-02-01T07:51:35;4.10;40.60
14210;DHT22;7188;56.070;12.698;2023-02-01T07:54:01;4.10;68.30
14210;DHT22;7188;56.070;12.698;2023-02-01T07:56:30;4.10;1.00
14210;DHT22;7188;56.070;12.698;2023-02-01T07:58:55;4.10;96.30
14210;DHT22;7188;56.070;12.698;2023-02-01T08:01:26;4.20;1.00
14210;DHT22;7188;56.070;12.698;2023-02-01T08:03:56;4.20;1.00
14210;DHT22;7188;56.070;12.698;2023-02-01T08:09:47;4.30;1.00
14210;DHT22;7188;56.070;12.698;2023-02-01T08:12:13;4.40;99.90
14210;DHT22;7188;56.070;12.698;2023-02-01T08:14:38;4.40;99.90
14210;DHT22;7188;56.070;12.698;2023-02-01T08:17:06;4.40;99.90
14210;DHT22;7188;56.070;12.698;2023-02-01T08:19:32;4.50;99.90
14210;DHT22;7188;56.070;12.698;2023-02-01T08:21:57;4.50;99.90
14210;DHT22;7188;56.070;12.698;2023-02-01T08:24:24;4.60;1.00
14210;DHT22;7188;56.070;12.698;2023-02-01T08:26:50;4.60;1.00
14210;DHT22;7188;56.070;12.698;2023-02-01T08:29:16;4.60;1.00
14210;DHT22;7188;56.070;12.698;2023-02-01T08:31:48;4.60;1.00
14210;DHT22;7188;56.070;12.698;2023-02-01T08:34:13;4.60;1.00
14210;DHT22;7188;56.070;12.698;2023-02-01T08:36:39;4.60;1.00
14210;DHT22;7188;56.070;12.698;2023-02-01T08:39:06;4.60;1.00
14210;DHT22;7188;56.070;12.698;2023-02-01T08:41:34;4.60;1.00
14210;DHT22;7188;56.070;12.698;2023-02-01T08:44:00;4.60;1.00
14210;DHT22;7188;56.070;12.698;2023-02-01T08:46:26;4.60;1.00
14210;DHT22;7188;56.070;12.698;2023-02-01T08:48:52;4.60;1.00
14210;DHT22;7188;56.070;12.698;2023-02-01T08:51:20;4.60;1.00
14210;DHT22;7188;56.070;12.698;2023-02-01T08:53:46;4.60;1.00
14210;DHT22;7188;56.070;12.698;2023-02-01T08:56:14;4.70;1.00
14210;DHT22;7188;56.070;12.698;2023-02-01T08:58:39;4.70;1.00
14210;DHT22;7188;56.070;12.698;2023-02-01T09:01:07;4.70;6.20
14210;DHT22;7188;56.070;12.698;2023-02-01T09:03:34;4.70;1.00
14210;DHT22;7188;56.070;12.698;2023-02-01T09:06:06;4.70;1.00
14210;DHT22;7188;56.070;12.698;2023-02-01T09:08:33;4.70;1.00
14210;DHT22;7188;56.070;12.698;2023-02-01T09:11:05;4.70;1.00
14210;DHT22;7188;56.070;12.698;2023-02-01T09:13:43;4.70;1.00
14210;DHT22;7188;56.070;12.698;2023-02-01T09:16:09;4.70;1.00
14210;DHT22;7188;56.070;12.698;2023-02-01T09:18:35;4.70;1.00
14210;DHT22;7188;56.070;12.698;2023-02-01T09:21:05;4.70;1.00
14210;DHT22;7188;56.070;12.698;2023-02-01T09:23:31;4.80;1.00
14210;DHT22;7188;56.070;12.698;2023-02-01T09:26:01;4.70;1.00
14210;DHT22;7188;56.070;12.698;2023-02-01T09:28:27;4.70;1.00
14210;DHT22;7188;56.070;12.698;2023-02-01T09:31:00;4.70;1.00
14210;DHT22;7188;56.070;12.698;2023-02-01T09:33:26;4.80;1.00
14210;DHT22;7188;56.070;12.698;2023-02-01T09:36:00;4.80;1.00
14210;DHT22;7188;56.070;12.698;2023-02-01T09:38:27;4.80;1.00
14210;DHT22;7188;56.070;12.698;2023-02-01T09:40:53;4.80;1.00
14210;DHT22;7188;56.070;12.698;2023-02-01T09:43:46;4.80;1.00
14210;DHT22;7188;56.070;12.698;2023-02-01T09:48:37;4.90;99.90
14210;DHT22;7188;56.070;12.698;2023-02-01T09:51:06;4.90;99.90
14210;DHT22;7188;56.070;12.698;2023-02-01T09:53:42;5.00;71.30
14210;DHT22;7188;56.070;12.698;2023-02-01T09:56:20;5.00;23.30
14210;DHT22;7188;56.070;12.698;2023-02-01T09:59:08;5.00;1.00
14210;DHT22;7188;56.070;12.698;2023-02-01T10:01:35;5.00;1.00
14210;DHT22;7188;56.070;12.698;2023-02-01T10:04:07;5.00;1.00
14210;DHT22;7188;56.070;12.698;2023-02-01T10:06:56;5.00;1.00
14210;DHT22;7188;56.070;12.698;2023-02-01T10:15:19;5.20;1.00
14210;DHT22;7188;56.070;12.698;2023-02-01T10:26:20;5.40;1.00
14210;DHT22;7188;56.070;12.698;2023-02-01T10:28:49;5.40;1.00
14210;DHT22;7188;56.070;12.698;2023-02-01T10:31:16;5.40;1.00
14210;DHT22;7188;56.070;12.698;2023-02-01T10:33:48;5.40;99.90
14210;DHT22;7188;56.070;12.698;2023-02-01T10:36:32;5.40;1.00
14210;DHT22;7188;56.070;12.698;2023-02-01T10:38:59;5.40;1.00
14210;DHT22;7188;56.070;12.698;2023-02-01T10:41:31;5.60;99.90
14210;DHT22;7188;56.070;12.698;2023-02-01T10:43:58;5.60;99.90
14210;DHT22;7188;56.070;12.698;2023-02-01T10:46:26;5.60;99.90
14210;DHT22;7188;56.070;12.698;2023-02-01T10:48:55;5.60;99.90
14210;DHT22;7188;56.070;12.698;2023-02-01T10:51:22;5.50;99.90
14210;DHT22;7188;56.070;12.698;2023-02-01T10:54:00;5.50;99.90
14210;DHT22;7188;56.070;12.698;2023-02-01T10:56:28;5.50;99.90
14210;DHT22;7188;56.070;12.698;2023-02-01T10:59:02;5.50;99.90
14210;DHT22;7188;56.070;12.698;2023-02-01T11:01:33;5.40;99.90
14210;DHT22;7188;56.070;12.698;2023-02-01T11:04:04;5.40;99.90
14210;DHT22;7188;56.070;12.698;2023-02-01T11:06:39;5.40;99.90
14210;DHT22;7188;56.070;12.698;2023-02-01T11:09:10;5.40;99.90
14210;DHT22;7188;56.070;12.698;2023-02-01T11:14:19;5.30;99.90
14210;DHT22;7188;56.070;12.698;2023-02-01T11:16:51;5.30;99.90
14210;DHT22;7188;56.070;12.698;2023-02-01T11:19:18;5.30;99.90
14210;DHT22;7188;56.070;12.698;2023-02-01T11:21:44;5.30;99.90
14210;DHT22;7188;56.070;12.698;2023-02-01T11:24:32;5.30;99.90
14210;DHT22;7188;56.070;12.698;2023-02-01T11:27:03;5.30;99.90
14210;DHT22;7188;56.070;12.698;2023-02-01T11:29:34;5.30;99.90
14210;DHT22;7188;56.070;12.698;2023-02-01T11:32:02;5.30;1.00
14210;DHT22;7188;56.070;12.698;2023-02-01T11:34:47;5.20;1.00
14210;DHT22;7188;56.070;12.698;2023-02-01T11:37:52;5.10;1.00
14210;DHT22;7188;56.070;12.698;2023-02-01T11:40:44;5.10;1.00
14210;DHT22;7188;56.070;12.698;2023-02-01T11:45:59;5.10;99.90
14210;DHT22;7188;56.070;12.698;2023-02-01T11:48:30;5.00;99.90
14210;DHT22;7188;56.070;12.698;2023-02-01T11:56:56;4.90;1.00
14210;DHT22;7188;56.070;12.698;2023-02-01T11:59:49;4.90;1.00
14210;DHT22;7188;56.070;12.698;2023-02-01T12:02:57;4.90;1.00
14210;DHT22;7188;56.070;12.698;2023-02-01T12:08:31;4.90;99.90
14210;DHT22;7188;56.070;12.698;2023-02-01T12:14:02;5.10;99.90
14210;DHT22;7188;56.070;12.698;2023-02-01T12:19:38;5.20;1.00
14210;DHT22;7188;56.070;12.698;2023-02-01T12:22:18;5.20;1.00
14210;DHT22;7188;56.070;12.698;2023-02-01T12:25:03;5.30;57.20
14210;DHT22;7188;56.070;12.698;2023-02-01T12:33:18;5.20;99.90
14210;DHT22;7188;56.070;12.698;2023-02-01T12:38:39;5.00;99.90
14210;DHT22;7188;56.070;12.698;2023-02-01T12:44:24;4.60;1.00
14210;DHT22;7188;56.070;12.698;2023-02-01T12:52:33;4.50;1.00
14210;DHT22;7188;56.070;12.698;2023-02-01T12:55:09;4.50;1.00
14210;DHT22;7188;56.070;12.698;2023-02-01T12:57:44;4.50;1.00
14210;DHT22;7188;56.070;12.698;2023-02-01T13:00:22;4.60;99.90
14210;DHT22;7188;56.070;12.698;2023-02-01T13:06:19;4.60;1.00
14210;DHT22;7188;56.070;12.698;2023-02-01T13:11:42;4.70;99.90
14210;DHT22;7188;56.070;12.698;2023-02-01T13:17:05;5.00;1.00
14210;DHT22;7188;56.070;12.698;2023-02-01T13:22:18;5.00;1.00
14210;DHT22;7188;56.070;12.698;2023-02-01T13:24:49;5.00;99.90
14210;DHT22;7188;56.070;12.698;2023-02-01T13:27:17;5.00;99.90
14210;DHT22;7188;56.070;12.698;2023-02-01T13:29:58;5.10;99.90
14210;DHT22;7188;56.070;12.698;2023-02-01T13:35:24;5.20;99.90
14210;DHT22;7188;56.070;12.698;2023-02-01T13:40:51;5.10;99.90
14210;DHT22;7188;56.070;12.698;2023-02-01T13:43:29;5.10;1.00
14210;DHT22;7188;56.070;12.698;2023-02-01T13:46:05;5.10;1.00
14210;DHT22;7188;56.070;12.698;2023-02-01T13:48:39;5.10;99.90
14210;DHT22;7188;56.070;12.698;2023-02-01T13:51:07;5.10;99.90
14210;DHT22;7188;56.070;12.698;2023-02-01T13:53:36;5.00;1.00
14210;DHT22;7188;56.070;12.698;2023-02-01T13:56:15;5.00;1.00
14210;DHT22;7188;56.070;12.698;2023-02-01T13:58:44;5.10;42.50
14210;DHT22;7188;56.070;12.698;2023-02-01T14:03:55;5.10;99.90
14210;DHT22;7188;56.070;12.698;2023-02-01T14:09:15;4.90;1.00
14210;DHT22;7188;56.070;12.698;2023-02-01T14:11:49;4.90;1.00
14210;DHT22;7188;56.070;12.698;2023-02-01T14:19:24;4.80;99.90
14210;DHT22;7188;56.070;12.698;2023-02-01T14:24:41;4.90;99.90
14210;DHT22;7188;56.070;12.698;2023-02-01T14:29:42;4.90;99.90
14210;DHT22;7188;56.070;12.698;2023-02-01T14:32:17;4.80;99.90
14210;DHT22;7188;56.070;12.698;2023-02-01T15:14:27;4.90;21.70
14210;DHT22;7188;56.070;12.698;2023-02-01T15:16:53;4.90;44.60
14210;DHT22;7188;56.070;12.698;2023-02-01T15:19:25;4.90;88.80
14210;DHT22;7188;56.070;12.698;2023-02-01T15:21:54;4.90;99.90
14210;DHT22;7188;56.070;12.698;2023-02-01T15:24:25;4.90;99.90
14210;DHT22;7188;56.070;12.698;2023-02-01T15:26:53;5.00;99.90
14210;DHT22;7188;56.070;12.698;2023-02-01T15:29:20;5.00;99.90
14210;DHT22;7188;56.070;12.698;2023-02-01T15:31:51;5.00;99.90
14210;DHT22;7188;56.070;12.698;2023-02-01T15:34:18;5.00;99.90
14210;DHT22;7188;56.070;12.698;2023-02-01T15:36:45;5.00;99.90
14210;DHT22;7188;56.070;12.698;2023-02-01T15:39:20;5.00;99.90
14210;DHT22;7188;56.070;12.698;2023-02-01T15:41:57;5.00;99.90
14210;DHT22;7188;56.070;12.698;2023-02-01T15:44:45;5.00;99.90
14210;DHT22;7188;56.070;12.698;2023-02-01T15:47:23;5.10;99.90
14210;DHT22;7188;56.070;12.698;2023-02-01T15:49:54;5.10;99.90
14210;DHT22;7188;56.070;12.698;2023-02-01T15:52:26;5.10;99.90
14210;DHT22;7188;56.070;12.698;2023-02-01T15:54:58;5.20;99.90
14210;DHT22;7188;56.070;12.698;2023-02-01T15:57:34;5.10;99.90
14210;DHT22;7188;56.070;12.698;2023-02-01T16:00:07;5.20;99.90
14210;DHT22;7188;56.070;12.698;2023-02-01T16:02:36;5.10;99.90
14210;DHT22;7188;56.070;12.698;2023-02-01T16:05:05;5.10;99.90
14210;DHT22;7188;56.070;12.698;2023-02-01T16:07:33;5.20;99.90
14210;DHT22;7188;56.070;12.698;2023-02-01T16:10:01;5.10;99.90
14210;DHT22;7188;56.070;12.698;2023-02-01T16:15:04;5.10;99.90
14210;DHT22;7188;56.070;12.698;2023-02-01T16:17:31;5.10;99.90
14210;DHT22;7188;56.070;12.698;2023-02-01T16:19:56;5.20;99.90
14210;DHT22;7188;56.070;12.698;2023-02-01T16:22:23;5.10;99.90
14210;DHT22;7188;56.070;12.698;2023-02-01T16:24:49;5.20;99.90
14210;DHT22;7188;56.070;12.698;2023-02-01T16:27:14;5.20;99.90
14210;DHT22;7188;56.070;12.698;2023-02-01T16:29:40;5.20;99.90
14210;DHT22;7188;56.070;12.698;2023-02-01T16:32:06;5.20;99.90
14210;DHT22;7188;56.070;12.698;2023-02-01T16:34:36;5.20;99.90
14210;DHT22;7188;56.070;12.698;2023-02-01T16:37:03;5.20;99.90
14210;DHT22;7188;56.070;12.698;2023-02-01T16:39:29;5.20;44.60
14210;DHT22;7188;56.070;12.698;2023-02-01T16:41:58;5.20;3.70
14210;DHT22;7188;56.070;12.698;2023-02-01T16:44:24;5.20;1.00
14210;DHT22;7188;56.070;12.698;2023-02-01T16:46:50;5.20;1.00
14210;DHT22;7188;56.070;12.698;2023-02-01T16:49:22;5.20;1.00
14210;DHT22;7188;56.070;12.698;2023-02-01T16:51:49;5.10;1.00
14210;DHT22;7188;56.070;12.698;2023-02-01T16:54:18;5.20;1.00
14210;DHT22;7188;56.070;12.698;2023-02-01T16:56:44;5.20;1.00
14210;DHT22;7188;56.070;12.698;2023-02-01T16:59:10;5.20;1.00
14210;DHT22;7188;56.070;12.698;2023-02-01T17:01:36;5.20;1.00
14210;DHT22;7188;56.070;12.698;2023-02-01T17:04:03;5.20;1.00
14210;DHT22;7188;56.070;12.698;2023-02-01T17:06:29;5.20;1.00
14210;DHT22;7188;56.070;12.698;2023-02-01T17:08:58;5.20;99.90
14210;DHT22;7188;56.070;12.698;2023-02-01T17:11:26;5.20;99.90
14210;DHT22;7188;56.070;12.698;2023-02-01T17:13:52;5.20;99.90
14210;DHT22;7188;56.070;12.698;2023-02-01T17:18:54;5.30;99.90
14210;DHT22;7188;56.070;12.698;2023-02-01T17:21:21;5.30;99.90
14210;DHT22;7188;56.070;12.698;2023-02-01T17:23:47;5.20;99.90
14210;DHT22;7188;56.070;12.698;2023-02-01T17:26:13;5.20;99.90
14210;DHT22;7188;56.070;12.698;2023-02-01T17:28:38;5.20;99.90
14210;DHT22;7188;56.070;12.698;2023-02-01T17:31:04;5.30;1.00
14210;DHT22;7188;56.070;12.698;2023-02-01T17:33:34;5.20;99.90
14210;DHT22;7188;56.070;12.698;2023-02-01T17:36:01;5.20;99.90
14210;DHT22;7188;56.070;12.698;2023-02-01T17:38:27;5.20;99.90
14210;DHT22;7188;56.070;12.698;2023-02-01T17:40:53;5.20;99.90
14210;DHT22;7188;56.070;12.698;2023-02-01T17:43:23;5.10;99.90
14210;DHT22;7188;56.070;12.698;2023-02-01T17:45:55;5.10;99.90
14210;DHT22;7188;56.070;12.698;2023-02-01T17:48:23;5.10;99.90
14210;DHT22;7188;56.070;12.698;2023-02-01T17:50:50;5.10;99.90
14210;DHT22;7188;56.070;12.698;2023-02-01T17:53:19;5.10;99.90
14210;DHT22;7188;56.070;12.698;2023-02-01T17:55:49;5.10;1.00
14210;DHT22;7188;56.070;12.698;2023-02-01T17:58:27;5.00;1.00
14210;DHT22;7188;56.070;12.698;2023-02-01T18:01:01;5.10;1.00
14210;DHT22;7188;56.070;12.698;2023-02-01T18:03:29;5.10;1.00
14210;DHT22;7188;56.070;12.698;2023-02-01T18:05:56;5.10;1.00
14210;DHT22;7188;56.070;12.698;2023-02-01T18:08:25;5.10;99.90
14210;DHT22;7188;56.070;12.698;2023-02-01T18:10:53;5.20;1.00
14210;DHT22;7188;56.070;12.698;2023-02-01T18:13:20;5.20;58.00
14210;DHT22;7188;56.070;12.698;2023-02-01T18:15:45;5.20;1.00
14210;DHT22;7188;56.070;12.698;2023-02-01T18:18:11;5.20;1.00
14210;DHT22;7188;56.070;12.698;2023-02-01T18:20:39;5.20;1.00
14210;DHT22;7188;56.070;12.698;2023-02-01T18:23:08;5.30;1.00
14210;DHT22;7188;56.070;12.698;2023-02-01T18:25:37;5.20;99.90
14210;DHT22;7188;56.070;12.698;2023-02-01T18:28:03;5.20;99.90
14210;DHT22;7188;56.070;12.698;2023-02-01T18:30:31;5.20;1.00
14210;DHT22;7188;56.070;12.698;2023-02-01T18:32:57;5.30;1.00
14210;DHT22;7188;56.070;12.698;2023-02-01T18:35:25;5.30;1.00
14210;DHT22;7188;56.070;12.698;2023-02-01T18:37:52;5.30;1.00
14210;DHT22;7188;56.070;12.698;2023-02-01T18:40:26;5.30;1.00
14210;DHT22;7188;56.070;12.698;2023-02-01T18:42:53;5.30;1.00
14210;DHT22;7188;56.070;12.698;2023-02-01T18:45:29;5.30;1.00
14210;DHT22;7188;56.070;12.698;2023-02-01T18:47:56;5.40;1.00
14210;DHT22;7188;56.070;12.698;2023-02-01T18:50:22;5.40;1.00
14210;DHT22;7188;56.070;12.698;2023-02-01T18:52:52;5.40;1.00
14210;DHT22;7188;56.070;12.698;2023-02-01T18:55:18;5.40;99.90
14210;DHT22;7188;56.070;12.698;2023-02-01T18:57:43;5.40;99.90